createdAt,value
2018-07-25T00:00:59.896Z,0
2018-07-25T00:01:59.891Z,0
2018-07-25T00:02:59.894Z,0
2018-07-25T00:03:59.878Z,0
2018-07-25T00:04:59.874Z,0
2018-07-25T00:05:59.868Z,0
2018-07-25T00:06:59.606Z,0
2018-07-25T00:07:59.610Z,0
2018-07-25T00:08:59.606Z,0
2018-07-25T00:09:59.601Z,0
2018-07-25T00:10:59.850Z,0
2018-07-25T00:11:59.873Z,0
2018-07-25T00:12:59.588Z,0
2018-07-25T00:13:59.845Z,0
2018-07-25T00:14:59.587Z,0
2018-07-25T00:15:59.587Z,0
2018-07-25T00:16:59.626Z,0
2018-07-25T00:17:59.833Z,0
2018-07-25T00:18:59.833Z,0
2018-07-25T00:19:59.827Z,0
2018-07-25T00:20:59.821Z,0
2018-07-25T00:21:59.314Z,0
2018-07-25T00:22:59.822Z,0
2018-07-25T00:23:59.825Z,0
2018-07-25T00:24:59.819Z,0
2018-07-25T00:25:59.817Z,0
2018-07-25T00:26:59.554Z,0
2018-07-25T00:27:59.811Z,0
2018-07-25T00:28:59.802Z,0
2018-07-25T00:29:59.805Z,0
2018-07-25T00:30:59.540Z,0
2018-07-25T00:31:59.792Z,0
2018-07-25T00:32:59.535Z,0
2018-07-25T00:33:59.540Z,0
2018-07-25T00:34:59.836Z,0
2018-07-25T00:35:59.525Z,0
2018-07-25T00:36:59.783Z,0
2018-07-25T00:37:59.530Z,0
2018-07-25T00:38:59.774Z,0
2018-07-25T00:39:59.772Z,0
2018-07-25T00:40:59.513Z,0
2018-07-25T00:41:59.772Z,0
2018-07-25T00:42:59.508Z,0
2018-07-25T00:43:59.764Z,0
2018-07-25T00:44:59.755Z,0
2018-07-25T00:45:59.494Z,0
2018-07-25T00:46:59.755Z,0
2018-07-25T00:47:59.748Z,0
2018-07-25T00:48:59.486Z,0
2018-07-25T00:49:59.520Z,0
2018-07-25T00:50:59.475Z,0
2018-07-25T00:51:59.735Z,0
2018-07-25T00:52:59.734Z,0
2018-07-25T00:53:59.727Z,0
2018-07-25T00:54:59.464Z,0
2018-07-25T00:55:59.724Z,0
2018-07-25T00:56:59.463Z,0
2018-07-25T00:57:59.456Z,0
2018-07-25T00:58:59.456Z,0
2018-07-25T00:59:59.451Z,0
2018-07-25T01:00:59.714Z,0
2018-07-25T01:01:59.703Z,0
2018-07-25T01:02:59.708Z,0
2018-07-25T01:03:59.690Z,0
2018-07-25T01:04:59.438Z,0
2018-07-25T01:05:59.685Z,0
2018-07-25T01:06:59.688Z,0
2018-07-25T01:07:59.677Z,0
2018-07-25T01:08:59.676Z,0
2018-07-25T01:09:59.673Z,0
2018-07-25T01:10:59.157Z,0
2018-07-25T01:11:59.663Z,0
2018-07-25T01:12:59.663Z,0
2018-07-25T01:13:59.402Z,0
2018-07-25T01:14:59.401Z,0
2018-07-25T01:15:59.649Z,0
2018-07-25T01:16:59.390Z,0
2018-07-25T01:17:59.646Z,0
2018-07-25T01:18:59.635Z,0
2018-07-25T01:19:59.658Z,0
2018-07-25T01:20:59.377Z,0
2018-07-25T01:21:59.369Z,0
2018-07-25T01:22:59.624Z,0
2018-07-25T01:23:59.630Z,0
2018-07-25T01:24:59.152Z,0
2018-07-25T01:25:59.609Z,0
2018-07-25T01:26:59.357Z,0
2018-07-25T01:27:59.350Z,0
2018-07-25T01:28:59.613Z,0
2018-07-25T01:29:59.089Z,0
2018-07-25T01:30:59.600Z,0
2018-07-25T01:31:59.080Z,0
2018-07-25T01:32:59.331Z,0
2018-07-25T01:33:59.326Z,0
2018-07-25T01:34:59.330Z,0
2018-07-25T01:35:59.066Z,0
2018-07-25T01:36:59.059Z,0
2018-07-25T01:37:59.313Z,0
2018-07-25T01:38:59.305Z,0
2018-07-25T01:39:59.311Z,0
2018-07-25T01:40:59.561Z,0
2018-07-25T01:41:59.295Z,0
2018-07-25T01:42:59.552Z,0
2018-07-25T01:43:59.550Z,0
2018-07-25T01:44:59.287Z,0
2018-07-25T01:45:59.280Z,0
2018-07-25T01:46:59.283Z,0
2018-07-25T01:47:59.020Z,0
2018-07-25T01:48:59.271Z,0
2018-07-25T01:49:59.273Z,0
2018-07-25T01:50:59.552Z,0
2018-07-25T01:51:59.523Z,0
2018-07-25T01:52:59.511Z,0
2018-07-25T01:53:59.247Z,0
2018-07-25T01:54:59.506Z,0
2018-07-25T01:55:59.504Z,0
2018-07-25T01:56:59.237Z,0
2018-07-25T01:57:59.490Z,0
2018-07-25T01:58:59.232Z,0
2018-07-25T01:59:59.233Z,0
2018-07-25T02:00:59.480Z,0
2018-07-25T02:01:58.960Z,0
2018-07-25T02:02:58.961Z,0
2018-07-25T02:03:59.214Z,0
2018-07-25T02:04:59.461Z,0
2018-07-25T02:05:59.461Z,0
2018-07-25T02:06:59.453Z,0
2018-07-25T02:07:59.190Z,0
2018-07-25T02:08:59.192Z,0
2018-07-25T02:09:58.930Z,0
2018-07-25T02:10:59.440Z,0
2018-07-25T02:11:59.450Z,0
2018-07-25T02:12:58.916Z,0
2018-07-25T02:13:59.432Z,0
2018-07-25T02:14:59.189Z,0
2018-07-25T02:15:59.169Z,0
2018-07-25T02:16:59.158Z,0
2018-07-25T02:17:59.409Z,0
2018-07-25T02:18:59.151Z,0
2018-07-25T02:19:59.409Z,0
2018-07-25T02:20:59.138Z,0
2018-07-25T02:21:58.882Z,0
2018-07-25T02:22:59.136Z,0
2018-07-25T02:23:59.126Z,0
2018-07-25T02:24:59.385Z,0
2018-07-25T02:25:59.374Z,0
2018-07-25T02:26:59.118Z,0
2018-07-25T02:27:59.109Z,0
2018-07-25T02:28:59.373Z,0
2018-07-25T02:29:58.843Z,0
2018-07-25T02:30:59.363Z,0
2018-07-25T02:31:58.842Z,0
2018-07-25T02:32:59.363Z,0
2018-07-25T02:33:59.341Z,0
2018-07-25T02:34:59.343Z,0
2018-07-25T02:35:59.345Z,0
2018-07-25T02:36:59.340Z,0
2018-07-25T02:37:59.081Z,0
2018-07-25T02:38:59.330Z,0
2018-07-25T02:39:59.316Z,0
2018-07-25T02:40:59.061Z,0
2018-07-25T02:41:59.315Z,0
2018-07-25T02:42:59.309Z,0
2018-07-25T02:43:59.635Z,0
2018-07-25T02:44:59.300Z,0
2018-07-25T02:45:59.031Z,0
2018-07-25T02:46:59.334Z,0
2018-07-25T02:47:59.280Z,0
2018-07-25T02:48:59.280Z,4
2018-07-25T02:49:59.019Z,4
2018-07-25T02:50:59.271Z,0
2018-07-25T02:51:58.751Z,0
2018-07-25T02:52:59.269Z,4
2018-07-25T02:53:59.257Z,4
2018-07-25T02:54:59.250Z,4
2018-07-25T02:55:58.991Z,4
2018-07-25T02:56:58.935Z,4
2018-07-25T02:57:58.982Z,8
2018-07-25T02:58:58.984Z,8
2018-07-25T02:59:59.234Z,8
2018-07-25T03:00:58.712Z,8
2018-07-25T03:01:58.964Z,12
2018-07-25T03:02:59.211Z,12
2018-07-25T03:03:59.211Z,16
2018-07-25T03:04:59.211Z,16
2018-07-25T03:05:59.203Z,20
2018-07-25T03:06:59.200Z,20
2018-07-25T03:07:59.192Z,24
2018-07-25T03:08:59.048Z,28
2018-07-25T03:09:59.183Z,32
2018-07-25T03:10:59.180Z,36
2018-07-25T03:11:58.925Z,40
2018-07-25T03:12:59.167Z,44
2018-07-25T03:13:58.921Z,52
2018-07-25T03:14:59.165Z,56
2018-07-25T03:15:59.165Z,64
2018-07-25T03:16:58.898Z,72
2018-07-25T03:17:58.902Z,80
2018-07-25T03:18:59.142Z,88
2018-07-25T03:19:59.156Z,96
2018-07-25T03:20:59.141Z,108
2018-07-25T03:21:58.617Z,120
2018-07-25T03:22:59.129Z,132
2018-07-25T03:23:59.120Z,144
2018-07-25T03:24:58.860Z,152
2018-07-25T03:25:59.111Z,168
2018-07-25T03:26:59.126Z,180
2018-07-25T03:27:58.846Z,196
2018-07-25T03:28:59.104Z,212
2018-07-25T03:29:59.091Z,228
2018-07-25T03:30:59.092Z,244
2018-07-25T03:31:59.094Z,264
2018-07-25T03:32:59.081Z,284
2018-07-25T03:33:59.068Z,304
2018-07-25T03:34:59.067Z,324
2018-07-25T03:35:59.075Z,344
2018-07-25T03:36:58.799Z,368
2018-07-25T03:37:59.056Z,388
2018-07-25T03:38:58.788Z,412
2018-07-25T03:39:58.793Z,436
2018-07-25T03:40:59.042Z,460
2018-07-25T03:41:58.776Z,484
2018-07-25T03:42:58.530Z,508
2018-07-25T03:43:59.029Z,540
2018-07-25T03:44:59.019Z,564
2018-07-25T03:45:59.021Z,592
2018-07-25T03:46:58.756Z,620
2018-07-25T03:47:58.752Z,648
2018-07-25T03:48:58.750Z,676
2018-07-25T03:49:59.008Z,700
2018-07-25T03:50:58.996Z,728
2018-07-25T03:51:58.733Z,760
2018-07-25T03:52:58.470Z,788
2018-07-25T03:53:58.982Z,816
2018-07-25T03:54:58.980Z,844
2018-07-25T03:55:58.973Z,872
2018-07-25T03:56:58.962Z,900
2018-07-25T03:57:58.963Z,928
2018-07-25T03:58:58.954Z,960
2018-07-25T03:59:58.953Z,992
2018-07-25T04:00:58.949Z,1020
2018-07-25T04:01:58.857Z,1048
2018-07-25T04:02:58.940Z,1080
2018-07-25T04:03:58.680Z,1108
2018-07-25T04:04:58.930Z,1136
2018-07-25T04:05:58.935Z,1172
2018-07-25T04:06:58.661Z,1200
2018-07-25T04:07:58.661Z,1228
2018-07-25T04:08:58.915Z,1260
2018-07-25T04:09:58.650Z,1292
2018-07-25T04:10:58.912Z,1320
2018-07-25T04:11:58.904Z,1348
2018-07-25T04:12:58.898Z,1376
2018-07-25T04:13:58.627Z,1400
2018-07-25T04:14:58.367Z,1432
2018-07-25T04:15:58.623Z,1456
2018-07-25T04:16:58.622Z,1488
2018-07-25T04:17:58.875Z,1516
2018-07-25T04:18:58.863Z,1540
2018-07-25T04:19:58.866Z,1568
2018-07-25T04:20:58.896Z,1596
2018-07-25T04:21:58.855Z,1624
2018-07-25T04:22:58.852Z,1652
2018-07-25T04:23:58.849Z,1672
2018-07-25T04:24:58.583Z,1700
2018-07-25T04:25:58.831Z,1720
2018-07-25T04:26:58.583Z,1736
2018-07-25T04:27:58.062Z,1760
2018-07-25T04:28:58.570Z,1780
2018-07-25T04:29:58.560Z,1800
2018-07-25T04:30:58.813Z,1816
2018-07-25T04:31:58.551Z,1840
2018-07-25T04:32:58.548Z,1856
2018-07-25T04:33:58.547Z,1876
2018-07-25T04:34:58.402Z,1896
2018-07-25T04:35:58.535Z,1916
2018-07-25T04:36:58.273Z,1940
2018-07-25T04:37:58.528Z,1960
2018-07-25T04:38:58.520Z,1980
2018-07-25T04:39:58.775Z,2004
2018-07-25T04:40:58.772Z,2024
2018-07-25T04:41:58.250Z,2044
2018-07-25T04:42:58.511Z,2072
2018-07-25T04:43:58.504Z,2096
2018-07-25T04:44:58.500Z,2116
2018-07-25T04:45:58.238Z,2140
2018-07-25T04:46:58.485Z,2164
2018-07-25T04:47:58.493Z,2184
2018-07-25T04:48:58.482Z,2208
2018-07-25T04:49:58.736Z,2228
2018-07-25T04:50:58.732Z,2252
2018-07-25T04:51:58.466Z,2268
2018-07-25T04:52:58.716Z,2288
2018-07-25T04:53:58.455Z,2308
2018-07-25T04:54:58.456Z,2324
2018-07-25T04:55:58.743Z,2340
2018-07-25T04:56:58.707Z,2368
2018-07-25T04:57:58.705Z,2384
2018-07-25T04:58:58.700Z,2408
2018-07-25T04:59:58.176Z,2432
2018-07-25T05:00:58.173Z,2456
2018-07-25T05:01:58.169Z,2480
2018-07-25T05:02:58.166Z,2508
2018-07-25T05:03:58.427Z,2528
2018-07-25T05:04:58.672Z,2548
2018-07-25T05:05:58.681Z,2572
2018-07-25T05:06:58.417Z,2640
2018-07-25T05:07:58.409Z,2964
2018-07-25T05:08:58.661Z,3312
2018-07-25T05:09:58.402Z,3456
2018-07-25T05:10:58.391Z,3560
2018-07-25T05:11:58.386Z,3328
2018-07-25T05:12:58.648Z,2964
2018-07-25T05:13:58.636Z,2756
2018-07-25T05:14:58.638Z,2728
2018-07-25T05:15:58.125Z,2748
2018-07-25T05:16:58.623Z,2764
2018-07-25T05:17:58.524Z,2784
2018-07-25T05:18:58.625Z,2800
2018-07-25T05:19:58.669Z,2824
2018-07-25T05:20:58.619Z,2840
2018-07-25T05:21:58.355Z,2864
2018-07-25T05:22:58.606Z,2888
2018-07-25T05:23:58.346Z,2908
2018-07-25T05:24:58.609Z,2932
2018-07-25T05:25:58.603Z,2952
2018-07-25T05:26:58.604Z,2972
2018-07-25T05:27:58.588Z,2996
2018-07-25T05:28:58.338Z,3020
2018-07-25T05:29:58.328Z,3036
2018-07-25T05:30:58.327Z,3056
2018-07-25T05:31:58.326Z,3072
2018-07-25T05:32:58.326Z,3084
2018-07-25T05:33:58.324Z,3100
2018-07-25T05:34:58.315Z,3116
2018-07-25T05:35:58.307Z,3132
2018-07-25T05:36:58.569Z,3152
2018-07-25T05:37:58.312Z,3172
2018-07-25T05:38:58.307Z,3196
2018-07-25T05:39:58.558Z,3220
2018-07-25T05:40:58.556Z,3244
2018-07-25T05:41:58.552Z,3260
2018-07-25T05:42:58.292Z,3280
2018-07-25T05:43:58.462Z,3300
2018-07-25T05:44:58.554Z,3320
2018-07-25T05:45:58.540Z,3340
2018-07-25T05:46:58.542Z,3356
2018-07-25T05:47:58.281Z,3376
2018-07-25T05:48:58.530Z,3404
2018-07-25T05:49:58.274Z,3420
2018-07-25T05:50:58.013Z,3436
2018-07-25T05:51:58.522Z,3452
2018-07-25T05:52:58.526Z,3468
2018-07-25T05:53:58.265Z,3492
2018-07-25T05:54:58.258Z,3512
2018-07-25T05:55:58.515Z,3536
2018-07-25T05:56:58.640Z,3560
2018-07-25T05:57:58.507Z,3576
2018-07-25T05:58:58.526Z,3596
2018-07-25T05:59:58.246Z,3612
2018-07-25T06:00:58.249Z,3624
2018-07-25T06:01:58.247Z,3628
2018-07-25T06:02:58.596Z,3620
2018-07-25T06:03:58.240Z,3616
2018-07-25T06:04:58.498Z,3616
2018-07-25T06:05:58.499Z,3628
2018-07-25T06:06:58.232Z,3640
2018-07-25T06:07:58.486Z,3648
2018-07-25T06:08:58.496Z,3656
2018-07-25T06:09:58.224Z,3664
2018-07-25T06:10:58.508Z,3668
2018-07-25T06:11:58.490Z,3672
2018-07-25T06:12:58.481Z,3672
2018-07-25T06:13:58.218Z,3676
2018-07-25T06:14:58.482Z,3684
2018-07-25T06:15:58.216Z,3696
2018-07-25T06:16:58.469Z,3712
2018-07-25T06:17:58.210Z,3724
2018-07-25T06:18:58.211Z,3736
2018-07-25T06:19:58.468Z,3748
2018-07-25T06:20:58.462Z,3756
2018-07-25T06:21:58.466Z,3776
2018-07-25T06:22:58.460Z,3788
2018-07-25T06:23:58.457Z,3804
2018-07-25T06:24:58.455Z,3828
2018-07-25T06:25:58.656Z,3848
2018-07-25T06:26:58.447Z,3876
2018-07-25T06:27:58.451Z,3900
2018-07-25T06:28:58.452Z,3904
2018-07-25T06:29:58.453Z,3900
2018-07-25T06:30:58.499Z,3908
2018-07-25T06:31:57.934Z,3916
2018-07-25T06:32:58.446Z,3928
2018-07-25T06:33:57.930Z,3948
2018-07-25T06:34:58.685Z,3968
2018-07-25T06:35:58.447Z,3992
2018-07-25T06:36:58.456Z,4020
2018-07-25T06:37:58.320Z,4052
2018-07-25T06:38:58.440Z,4092
2018-07-25T06:39:58.177Z,4184
2018-07-25T06:40:58.438Z,4360
2018-07-25T06:41:58.439Z,4804
2018-07-25T06:42:58.451Z,5476
2018-07-25T06:43:58.434Z,6260
2018-07-25T06:44:58.432Z,8056
2018-07-25T06:45:58.174Z,8504
2018-07-25T06:46:58.433Z,7992
2018-07-25T06:47:58.183Z,13172
2018-07-25T06:48:58.183Z,16512
2018-07-25T06:49:58.187Z,19104
2018-07-25T06:50:58.560Z,28064
2018-07-25T06:51:58.185Z,30528
2018-07-25T06:52:57.915Z,23744
2018-07-25T06:53:58.433Z,17952
2018-07-25T06:54:58.434Z,26528
2018-07-25T06:55:58.168Z,37664
2018-07-25T06:56:57.914Z,41760
2018-07-25T06:57:58.174Z,40928
2018-07-25T06:58:58.443Z,30432
2018-07-25T06:59:58.175Z,34080
2018-07-25T07:00:58.180Z,43808
2018-07-25T07:01:57.921Z,44096
2018-07-25T07:02:58.440Z,45280
2018-07-25T07:03:58.443Z,44704
2018-07-25T07:04:58.450Z,44736
2018-07-25T07:05:58.193Z,46720
2018-07-25T07:06:58.332Z,43840
2018-07-25T07:07:57.945Z,42816
2018-07-25T07:08:58.196Z,46528
2018-07-25T07:09:57.949Z,47360
2018-07-25T07:10:58.469Z,44512
2018-07-25T07:11:58.007Z,45632
2018-07-25T07:12:58.474Z,49184
2018-07-25T07:13:58.224Z,47072
2018-07-25T07:14:58.488Z,43712
2018-07-25T07:15:58.490Z,44160
2018-07-25T07:16:58.499Z,44224
2018-07-25T07:17:58.501Z,46336
2018-07-25T07:18:58.246Z,46656
2018-07-25T07:19:58.527Z,43552
2018-07-25T07:20:58.526Z,44032
2018-07-25T07:21:58.529Z,46784
2018-07-25T07:22:58.274Z,46720
2018-07-25T07:23:58.380Z,46880
2018-07-25T07:24:58.039Z,47776
2018-07-25T07:25:58.495Z,48064
2018-07-25T07:26:58.306Z,48000
2018-07-25T07:27:58.574Z,48608
2018-07-25T07:28:58.322Z,48800
2018-07-25T07:29:58.335Z,47264
2018-07-25T07:30:58.345Z,47552
2018-07-25T07:31:58.348Z,50048
2018-07-25T07:32:58.768Z,50432
2018-07-25T07:33:58.369Z,50656
2018-07-25T07:34:58.467Z,52192
2018-07-25T07:35:58.651Z,53792
2018-07-25T07:36:58.399Z,52512
2018-07-25T07:37:58.589Z,50464
2018-07-25T07:38:58.679Z,51424
2018-07-25T07:39:58.681Z,52896
2018-07-25T07:40:58.698Z,52224
2018-07-25T07:41:58.704Z,53120
2018-07-25T07:42:58.460Z,53984
2018-07-25T07:43:58.731Z,53600
2018-07-25T07:44:58.732Z,54944
2018-07-25T07:45:58.489Z,52832
2018-07-25T07:46:58.495Z,36128
2018-07-25T07:47:58.501Z,14128
2018-07-25T07:48:58.785Z,7256
2018-07-25T07:49:58.268Z,6624
2018-07-25T07:50:58.796Z,6288
2018-07-25T07:51:58.293Z,6076
2018-07-25T07:52:58.302Z,5936
2018-07-25T07:53:58.682Z,5752
2018-07-25T07:54:58.648Z,5596
2018-07-25T07:55:58.592Z,5568
2018-07-25T07:56:58.892Z,5700
2018-07-25T07:57:58.353Z,5564
2018-07-25T07:58:58.879Z,5516
2018-07-25T07:59:58.894Z,5488
2018-07-25T08:00:58.945Z,5532
2018-07-25T08:01:58.393Z,5460
2018-07-25T08:02:58.659Z,5600
2018-07-25T08:03:58.668Z,5596
2018-07-25T08:04:59.196Z,5424
2018-07-25T08:05:58.947Z,5584
2018-07-25T08:06:58.957Z,5712
2018-07-25T08:07:58.964Z,5820
2018-07-25T08:08:58.964Z,5936
2018-07-25T08:09:58.973Z,6100
2018-07-25T08:10:58.982Z,6128
2018-07-25T08:11:59.004Z,6768
2018-07-25T08:12:59.014Z,7132
2018-07-25T08:13:59.009Z,6732
2018-07-25T08:14:59.019Z,6924
2018-07-25T08:15:59.029Z,6316
2018-07-25T08:16:58.778Z,7176
2018-07-25T08:17:58.938Z,7936
2018-07-25T08:18:58.547Z,8416
2018-07-25T08:19:58.826Z,8728
2018-07-25T08:20:58.587Z,9172
2018-07-25T08:21:59.084Z,9448
2018-07-25T08:22:59.082Z,9768
2018-07-25T08:23:59.086Z,9728
2018-07-25T08:24:59.103Z,9176
2018-07-25T08:25:59.103Z,8608
2018-07-25T08:26:59.118Z,8444
2018-07-25T08:27:59.123Z,7324
2018-07-25T08:28:58.608Z,6332
2018-07-25T08:29:58.618Z,5440
2018-07-25T08:30:58.887Z,5524
2018-07-25T08:31:59.146Z,5724
2018-07-25T08:32:59.206Z,5864
2018-07-25T08:33:59.162Z,5796
2018-07-25T08:34:59.141Z,5576
2018-07-25T08:35:58.914Z,5368
2018-07-25T08:36:58.666Z,5880
2018-07-25T08:37:58.924Z,6000
2018-07-25T08:38:58.938Z,5928
2018-07-25T08:39:59.200Z,6016
2018-07-25T08:40:59.207Z,5496
2018-07-25T08:41:59.213Z,5168
2018-07-25T08:42:58.701Z,5332
2018-07-25T08:43:58.723Z,5552
2018-07-25T08:44:58.972Z,5808
2018-07-25T08:45:59.235Z,6024
2018-07-25T08:46:58.828Z,6088
2018-07-25T08:47:59.247Z,5360
2018-07-25T08:48:59.253Z,5240
2018-07-25T08:49:58.745Z,4928
2018-07-25T08:50:59.015Z,4352
2018-07-25T08:51:58.753Z,4352
2018-07-25T08:52:59.215Z,4916
2018-07-25T08:53:59.032Z,5064
2018-07-25T08:54:59.293Z,5232
2018-07-25T08:55:59.292Z,5372
2018-07-25T08:56:59.290Z,5596
2018-07-25T08:57:59.191Z,5620
2018-07-25T08:58:59.052Z,4916
2018-07-25T08:59:59.065Z,5176
2018-07-25T09:00:59.052Z,5168
2018-07-25T09:01:59.759Z,5340
2018-07-25T09:02:59.320Z,5904
2018-07-25T09:03:59.329Z,6148
2018-07-25T09:04:59.347Z,6524
2018-07-25T09:05:59.341Z,6168
2018-07-25T09:06:59.088Z,5656
2018-07-25T09:07:59.088Z,5316
2018-07-25T09:08:59.354Z,5192
2018-07-25T09:09:59.365Z,4996
2018-07-25T09:10:59.361Z,4940
2018-07-25T09:11:59.120Z,4952
2018-07-25T09:12:59.247Z,5152
2018-07-25T09:13:59.378Z,5460
2018-07-25T09:14:59.379Z,5372
2018-07-25T09:15:59.393Z,5396
2018-07-25T09:16:59.410Z,5508
2018-07-25T09:17:59.409Z,5056
2018-07-25T09:18:59.464Z,4044
2018-07-25T09:19:59.602Z,4108
2018-07-25T09:20:59.154Z,4840
2018-07-25T09:21:59.158Z,4796
2018-07-25T09:22:58.916Z,4780
2018-07-25T09:23:59.430Z,5096
2018-07-25T09:24:59.428Z,5684
2018-07-25T09:25:59.487Z,5984
2018-07-25T09:26:59.467Z,5944
2018-07-25T09:27:59.485Z,6204
2018-07-25T09:28:59.473Z,5948
2018-07-25T09:29:59.219Z,6976
2018-07-25T09:30:59.219Z,7052
2018-07-25T09:31:58.971Z,7164
2018-07-25T09:32:59.962Z,6848
2018-07-25T09:33:59.990Z,6340
2018-07-25T09:34:59.501Z,6548
2018-07-25T09:35:59.503Z,7580
2018-07-25T09:36:59.255Z,8360
2018-07-25T09:37:59.528Z,8152
2018-07-25T09:38:59.301Z,7952
2018-07-25T09:39:59.317Z,7448
2018-07-25T09:41:01.240Z,6816
2018-07-25T09:41:59.570Z,7012
2018-07-25T09:42:59.588Z,8024
2018-07-25T09:43:59.031Z,8096
2018-07-25T09:44:59.621Z,9100
2018-07-25T09:45:59.309Z,8788
2018-07-25T09:47:00.014Z,7972
2018-07-25T09:48:00.398Z,6476
2018-07-25T09:48:59.336Z,5656
2018-07-25T09:49:59.375Z,4844
2018-07-25T09:50:59.363Z,5164
2018-07-25T09:51:59.324Z,6148
2018-07-25T09:53:00.019Z,7936
2018-07-25T09:53:59.641Z,8800
2018-07-25T09:55:00.539Z,8388
2018-07-25T09:55:59.621Z,7768
2018-07-25T09:56:59.366Z,8212
2018-07-25T09:57:59.660Z,8560
2018-07-25T09:59:00.000Z,9924
2018-07-25T09:59:59.626Z,8668
2018-07-25T10:00:59.948Z,7788
2018-07-25T10:01:59.116Z,7284
2018-07-25T10:03:00.906Z,6948
2018-07-25T10:03:59.371Z,5992
2018-07-25T10:04:59.424Z,6076
2018-07-25T10:05:59.146Z,6444
2018-07-25T10:06:59.172Z,6648
2018-07-25T10:07:59.419Z,6900
2018-07-25T10:08:59.432Z,7140
2018-07-25T10:10:00.085Z,7168
2018-07-25T10:10:59.137Z,7056
2018-07-25T10:11:59.444Z,6992
2018-07-25T10:12:59.477Z,7152
2018-07-25T10:13:59.441Z,7108
2018-07-25T10:14:59.889Z,7908
2018-07-25T10:15:59.466Z,8736
2018-07-25T10:16:59.774Z,9652
2018-07-25T10:18:00.906Z,9776
2018-07-25T10:18:59.726Z,8752
2018-07-25T10:19:59.186Z,7768
2018-07-25T10:21:00.082Z,7012
2018-07-25T10:21:59.780Z,6528
2018-07-25T10:22:59.572Z,6120
2018-07-25T10:23:59.775Z,5496
2018-07-25T10:25:00.006Z,5728
2018-07-25T10:25:59.552Z,4968
2018-07-25T10:26:59.587Z,5088
2018-07-25T10:27:59.814Z,5852
2018-07-25T10:28:59.490Z,7020
2018-07-25T10:29:59.511Z,7576
2018-07-25T10:30:59.521Z,7720
2018-07-25T10:32:00.024Z,7372
2018-07-25T10:33:01.260Z,7572
2018-07-25T10:33:59.540Z,8140
2018-07-25T10:34:59.535Z,8364
2018-07-25T10:35:59.810Z,9036
2018-07-25T10:36:59.000Z,10120
2018-07-25T10:37:59.832Z,11220
2018-07-25T10:39:00.059Z,10668
2018-07-25T10:40:00.752Z,9184
2018-07-25T10:40:59.835Z,8436
2018-07-25T10:41:59.562Z,7600
2018-07-25T10:42:59.300Z,7004
2018-07-25T10:43:59.569Z,7180
2018-07-25T10:44:59.589Z,7768
2018-07-25T10:46:00.452Z,7424
2018-07-25T10:46:59.594Z,7132
2018-07-25T10:48:00.896Z,8244
2018-07-25T10:49:00.282Z,8896
2018-07-25T10:49:59.870Z,10036
2018-07-25T10:50:59.870Z,10324
2018-07-25T10:51:59.876Z,10568
2018-07-25T10:52:59.888Z,10864
2018-07-25T10:53:59.890Z,10520
2018-07-25T10:55:00.047Z,9972
2018-07-25T10:56:00.896Z,9140
2018-07-25T10:56:59.912Z,8604
2018-07-25T10:57:59.899Z,8460
2018-07-25T10:58:59.393Z,9148
2018-07-25T10:59:59.388Z,9568
2018-07-25T11:00:59.683Z,9568
2018-07-25T11:01:59.964Z,8248
2018-07-25T11:03:00.268Z,8144
2018-07-25T11:04:00.216Z,8392
2018-07-25T11:04:59.712Z,7100
2018-07-25T11:05:59.441Z,5948
2018-07-25T11:06:59.997Z,5996
2018-07-25T11:07:59.727Z,6184
2018-07-25T11:08:59.967Z,6192
2018-07-25T11:10:00.810Z,6532
2018-07-25T11:10:59.955Z,6996
2018-07-25T11:11:59.980Z,6820
2018-07-25T11:12:59.722Z,6704
2018-07-25T11:13:59.998Z,6872
2018-07-25T11:14:59.996Z,6888
2018-07-25T11:16:00.002Z,6968
2018-07-25T11:16:59.750Z,6844
2018-07-25T11:18:00.027Z,6948
2018-07-25T11:19:00.775Z,6344
2018-07-25T11:19:59.765Z,5936
2018-07-25T11:20:59.764Z,5788
2018-07-25T11:21:59.513Z,5536
2018-07-25T11:23:00.392Z,6184
2018-07-25T11:23:59.791Z,6600
2018-07-25T11:24:59.786Z,6940
2018-07-25T11:26:00.099Z,6844
2018-07-25T11:27:00.294Z,6080
2018-07-25T11:27:59.546Z,5496
2018-07-25T11:29:00.057Z,5340
2018-07-25T11:30:00.078Z,5392
2018-07-25T11:30:59.810Z,5192
2018-07-25T11:32:00.093Z,5140
2018-07-25T11:33:00.382Z,4884
2018-07-25T11:33:59.819Z,4784
2018-07-25T11:34:59.575Z,4796
2018-07-25T11:35:59.826Z,4848
2018-07-25T11:36:59.836Z,4948
2018-07-25T11:37:59.582Z,5092
2018-07-25T11:39:00.138Z,5532
2018-07-25T11:39:59.853Z,6180
2018-07-25T11:41:00.123Z,7052
2018-07-25T11:41:59.606Z,7796
2018-07-25T11:43:00.132Z,8460
2018-07-25T11:44:00.134Z,8508
2018-07-25T11:44:59.874Z,9252
2018-07-25T11:45:59.882Z,10028
2018-07-25T11:46:59.893Z,9956
2018-07-25T11:48:00.177Z,9096
2018-07-25T11:48:59.909Z,8564
2018-07-25T11:49:59.999Z,7952
2018-07-25T11:50:59.913Z,6856
2018-07-25T11:51:59.917Z,6236
2018-07-25T11:52:59.926Z,5536
2018-07-25T11:53:59.933Z,5048
2018-07-25T11:54:59.945Z,4416
2018-07-25T11:56:00.202Z,4232
2018-07-25T11:57:00.205Z,4400
2018-07-25T11:57:59.960Z,5100
2018-07-25T11:58:59.966Z,5340
2018-07-25T11:59:59.978Z,5664
2018-07-25T12:01:00.253Z,5780
2018-07-25T12:02:00.236Z,6024
2018-07-25T12:03:00.237Z,6044
2018-07-25T12:04:00.240Z,5932
2018-07-25T12:05:00.253Z,5812
2018-07-25T12:06:01.443Z,5408
2018-07-25T12:08:00.042Z,5632
2018-07-25T12:09:00.075Z,5840
2018-07-25T12:10:00.050Z,6860
2018-07-25T12:11:00.357Z,9280
2018-07-25T12:12:00.076Z,10260
2018-07-25T12:12:59.524Z,9812
2018-07-25T12:14:00.377Z,8988
2018-07-25T12:15:00.337Z,8132
2018-07-25T12:15:59.806Z,7504
2018-07-25T12:17:00.382Z,8304
2018-07-25T12:17:59.808Z,8580
2018-07-25T12:19:00.375Z,8260
2018-07-25T12:20:00.140Z,7316
2018-07-25T12:21:01.297Z,7100
2018-07-25T12:22:00.386Z,7664
2018-07-25T12:23:00.384Z,8444
2018-07-25T12:24:00.163Z,9312
2018-07-25T12:25:00.407Z,9708
2018-07-25T12:26:00.131Z,9648
2018-07-25T12:27:00.306Z,8336
2018-07-25T12:28:01.202Z,7108
2018-07-25T12:28:59.911Z,6104
2018-07-25T12:30:00.443Z,6116
2018-07-25T12:31:00.456Z,6420
2018-07-25T12:32:00.533Z,7840
2018-07-25T12:33:00.458Z,8956
2018-07-25T12:34:00.194Z,8144
2018-07-25T12:35:01.456Z,7004
2018-07-25T12:36:00.448Z,5812
2018-07-25T12:37:00.056Z,5920
2018-07-25T12:38:00.495Z,6148
2018-07-25T12:39:00.482Z,6340
2018-07-25T12:40:00.490Z,6232
2018-07-25T12:41:00.477Z,6052
2018-07-25T12:42:01.040Z,5964
2018-07-25T12:43:01.477Z,5892
2018-07-25T12:44:00.482Z,5424
2018-07-25T12:45:00.504Z,4796
2018-07-25T12:46:00.237Z,4748
2018-07-25T12:47:00.249Z,5192
2018-07-25T12:48:00.528Z,5880
2018-07-25T12:49:00.530Z,6788
2018-07-25T12:50:00.693Z,7036
2018-07-25T12:51:00.267Z,7244
2018-07-25T12:52:00.281Z,6996
2018-07-25T12:53:00.579Z,6520
2018-07-25T12:54:01.090Z,6704
2018-07-25T12:55:00.557Z,6984
2018-07-25T12:56:00.026Z,7176
2018-07-25T12:56:59.757Z,6556
2018-07-25T12:58:00.589Z,5288
2018-07-25T12:59:00.051Z,4496
2018-07-25T13:00:00.309Z,4352
2018-07-25T13:01:00.324Z,4540
2018-07-25T13:02:00.606Z,4356
2018-07-25T13:03:00.868Z,4368
2018-07-25T13:04:01.085Z,4676
2018-07-25T13:05:00.075Z,5696
2018-07-25T13:06:00.623Z,7148
2018-07-25T13:07:00.352Z,8520
2018-07-25T13:08:00.627Z,8488
2018-07-25T13:09:00.362Z,8332
2018-07-25T13:10:00.655Z,6852
2018-07-25T13:11:00.663Z,5212
2018-07-25T13:12:01.536Z,4468
2018-07-25T13:13:00.687Z,4652
2018-07-25T13:14:00.383Z,4428
2018-07-25T13:15:00.665Z,4116
2018-07-25T13:16:00.662Z,4448
2018-07-25T13:17:00.709Z,4288
2018-07-25T13:18:00.684Z,4572
2018-07-25T13:19:01.421Z,4924
2018-07-25T13:20:01.361Z,4752
2018-07-25T13:21:00.414Z,4464
2018-07-25T13:22:00.696Z,4364
2018-07-25T13:23:00.871Z,4428
2018-07-25T13:24:00.443Z,4400
2018-07-25T13:25:00.472Z,5084
2018-07-25T13:26:00.709Z,5328
2018-07-25T13:27:02.219Z,5768
2018-07-25T13:27:59.914Z,6256
2018-07-25T13:29:01.039Z,6764
2018-07-25T13:30:00.752Z,6908
2018-07-25T13:31:00.775Z,6984
2018-07-25T13:32:00.762Z,7024
2018-07-25T13:33:00.498Z,6888
2018-07-25T13:34:00.916Z,6868
2018-07-25T13:35:00.937Z,6624
2018-07-25T13:36:01.004Z,6404
2018-07-25T13:37:01.291Z,6236
2018-07-25T13:38:00.526Z,6252